Time;durP1;ratioP1;P1;durP2;ratioP2;P2;SDS_P1;SDS_P2;PMS_P1;PMS_P2;Temp;Humidity;BMP_temperature;BMP_pressure;BME280_temperature;BME280_humidity;BME280_pressure;Samples;Min_cycle;Max_cycle;Signal;HPM_P1;HPM_P2
2021/11/25 00:00:48;;;;;;;;;;;;;;;13.10;100.00;101285.69;5052999;28;20337;-61
2021/11/25 00:03:14;;;;;;;;;;;;;;;13.17;100.00;101286.56;5086199;28;19920;-61
2021/11/25 00:05:39;;;;;;;;;;;;;;;12.95;100.00;101281.31;5053923;28;19952;-61
2021/11/25 00:08:05;;;;;;;;;;;;;;;12.88;100.00;101275.91;5054231;28;19996;-60
2021/11/25 00:10:31;;;;;;;;;;;;;;;12.97;100.00;101262.31;5052985;28;19924;-60
2021/11/25 00:12:57;;;;;;;;;;;;;;;12.90;100.00;101263.13;5053700;28;20011;-60
2021/11/25 00:15:22;;;;;;;;;;;;;;;12.90;100.00;101256.91;5052619;28;19920;-59
2021/11/25 00:17:48;;;;;;;;;;;;;;;12.75;100.00;101249.84;5052432;28;19920;-59
2021/11/25 00:20:14;;;;;;;;;;;;;;;12.38;100.00;101251.94;5052270;28;19921;-59
2021/11/25 00:22:40;;;;;;;;;;;;;;;12.28;100.00;101240.75;5085519;28;20288;-60
2021/11/25 00:25:06;;;;;;;;;;;;;;;12.22;100.00;101236.97;5085715;28;19921;-60
2021/11/25 00:27:31;;;;;;;;;;;;;;;12.47;100.00;101250.75;5052021;28;19917;-59
2021/11/25 00:29:57;;;;;;;;;;;;;;;12.53;100.00;101251.00;5053874;28;20081;-59
2021/11/25 00:32:22;;;;;;;;;;;;;;;12.33;100.00;101235.59;5057594;28;19916;-60
2021/11/25 00:34:48;;;;;;;;;;;;;;;12.33;100.00;101243.66;5090314;28;19927;-60
2021/11/25 00:37:14;;;;;;;;;;;;;;;12.06;100.00;101243.47;5090288;28;19916;-60
2021/11/25 00:39:39;;;;;;;;;;;;;;;12.23;100.00;101240.50;5057516;28;19916;-59
2021/11/25 00:42:05;;;;;;;;;;;;;;;12.26;100.00;101234.75;5057769;28;19920;-59
2021/11/25 00:44:30;;;;;;;;;;;;;;;12.22;100.00;101236.13;5057548;28;20363;-59
2021/11/25 00:46:56;;;;;;;;;;;;;;;12.30;100.00;101228.78;5057385;28;19956;-59
2021/11/25 00:49:21;;;;;;;;;;;;;;;12.11;100.00;101224.09;5055970;28;20319;-59
2021/11/25 00:51:47;;;;;;;;;;;;;;;12.11;100.00;101224.09;5057243;28;20327;-58
2021/11/25 00:54:12;;;;;;;;;;;;;;;12.19;100.00;101226.66;5057269;28;20011;-59
2021/11/25 00:56:37;;;;;;;;;;;;;;;12.01;100.00;101233.34;5057160;28;19917;-58
2021/11/25 00:59:03;;;;;;;;;;;;;;;12.10;100.00;101236.69;5089899;28;19920;-59
2021/11/25 01:01:28;;;;;;;;;;;;;;;12.19;100.00;101232.00;5055808;28;19912;-59
2021/11/25 01:03:54;;;;;;;;;;;;;;;12.14;100.00;101231.78;5057638;28;20329;-59
2021/11/25 01:06:19;;;;;;;;;;;;;;;12.30;100.00;101233.31;5056183;28;19925;-56
2021/11/25 01:08:45;;;;;;;;;;;;;;;12.03;100.00;101225.94;5056236;28;19917;-55
2021/11/25 01:11:10;;;;;;;;;;;;;;;12.08;100.00;101224.50;5056154;28;19916;-52
2021/11/25 01:13:35;;;;;;;;;;;;;;;11.95;100.00;101226.06;5056069;28;19927;-53
2021/11/25 01:16:01;;;;;;;;;;;;;;;12.02;100.00;101224.25;5088667;28;20003;-52
2021/11/25 01:18:26;;;;;;;;;;;;;;;12.04;100.00;101232.13;5088586;28;19974;-55
2021/11/25 01:20:52;;;;;;;;;;;;;;;11.97;100.00;101234.72;5088382;28;19925;-54
2021/11/25 01:23:19;;;;;;;;;;;;;;;11.72;100.00;101235.16;5072404;28;19926;-56
2021/11/25 01:25:47;;;;;;;;;;;;;;;12.00;100.00;101223.59;5056666;28;20349;-53
2021/11/25 01:28:13;;;;;;;;;;;;;;;11.70;100.00;101226.47;5055831;28;20013;-55
2021/11/25 01:30:43;;;;;;;;;;;;;;;11.89;100.00;101221.47;5055033;28;19952;-51
2021/11/25 01:33:08;;;;;;;;;;;;;;;11.72;100.00;101213.72;5088526;28;20003;-52
2021/11/25 01:35:34;;;;;;;;;;;;;;;11.76;100.00;101219.50;5056411;28;20400;-55
2021/11/25 01:37:59;;;;;;;;;;;;;;;11.76;100.00;101214.97;5071283;28;19924;-54
2021/11/25 01:40:25;;;;;;;;;;;;;;;11.85;100.00;101218.34;5055568;28;19943;-53
2021/11/25 01:42:50;;;;;;;;;;;;;;;11.91;100.00;101217.56;5054447;28;20284;-54
2021/11/25 01:45:16;;;;;;;;;;;;;;;12.03;100.00;101212.53;5088150;28;19952;-52
2021/11/25 01:47:43;;;;;;;;;;;;;;;12.21;100.00;101224.59;5055605;28;20042;-55
2021/11/25 01:50:09;;;;;;;;;;;;;;;12.09;100.00;101210.91;5055613;28;19924;-53
2021/11/25 01:52:34;;;;;;;;;;;;;;;11.85;100.00;101207.63;5054121;28;19921;-56
2021/11/25 01:54:59;;;;;;;;;;;;;;;11.97;100.00;101209.75;5055271;28;19970;-55
2021/11/25 01:57:25;;;;;;;;;;;;;;;12.28;100.00;101204.00;5055337;28;20407;-58
2021/11/25 01:59:50;;;;;;;;;;;;;;;12.22;100.00;101206.63;5055188;28;19928;-54
2021/11/25 02:02:16;;;;;;;;;;;;;;;12.19;100.00;101197.97;5087547;28;20054;-54
2021/11/25 02:04:41;;;;;;;;;;;;;;;12.43;100.00;101192.34;5055287;28;20022;-52
2021/11/25 02:07:06;;;;;;;;;;;;;;;12.18;100.00;101196.31;5055268;28;20392;-52
2021/11/25 02:09:32;;;;;;;;;;;;;;;12.08;100.00;101195.84;5054725;28;19963;-55
2021/11/25 02:11:57;;;;;;;;;;;;;;;12.25;100.00;101195.56;5054923;28;19917;-55
2021/11/25 02:14:23;;;;;;;;;;;;;;;12.19;100.00;101184.56;5054578;28;20398;-55
2021/11/25 02:16:50;;;;;;;;;;;;;;;11.98;100.00;101180.09;5056051;28;19920;-55
2021/11/25 02:19:15;;;;;;;;;;;;;;;11.84;100.00;101179.19;5088122;28;20284;-50
2021/11/25 02:21:41;;;;;;;;;;;;;;;11.90;100.00;101167.66;5054954;28;19917;-52
2021/11/25 02:24:06;;;;;;;;;;;;;;;11.53;100.00;101166.16;5086950;28;19967;-53
2021/11/25 02:26:32;;;;;;;;;;;;;;;11.98;100.00;101168.53;5054733;28;19916;-51
2021/11/25 02:28:57;;;;;;;;;;;;;;;11.92;100.00;101164.81;5054853;28;19927;-53
2021/11/25 02:31:23;;;;;;;;;;;;;;;12.21;100.00;101167.44;5054567;28;19916;-52
2021/11/25 02:33:48;;;;;;;;;;;;;;;11.91;100.00;101163.16;5053527;28;20409;-52
2021/11/25 02:36:14;;;;;;;;;;;;;;;12.15;100.00;101164.53;5052812;28;20407;-51
2021/11/25 02:38:39;;;;;;;;;;;;;;;11.87;100.00;101153.81;5054901;28;19924;-54
2021/11/25 02:41:05;;;;;;;;;;;;;;;12.05;100.00;101156.84;5086651;28;20353;-52
2021/11/25 02:43:32;;;;;;;;;;;;;;;11.91;100.00;101153.25;5054590;28;19917;-53
2021/11/25 02:45:59;;;;;;;;;;;;;;;11.65;100.00;101147.69;5054341;28;19921;-51
2021/11/25 02:48:51;;;;;;;;;;;;;;;11.93;100.00;101154.91;5054719;28;19964;-54
2021/11/25 02:51:18;;;;;;;;;;;;;;;12.26;100.00;101151.63;5053010;28;20387;-53
2021/11/25 02:53:43;;;;;;;;;;;;;;;12.15;100.00;101155.69;5053851;28;19963;-52
2021/11/25 02:56:11;;;;;;;;;;;;;;;12.15;100.00;101147.66;5054876;28;19944;-51
2021/11/25 02:58:36;;;;;;;;;;;;;;;11.96;100.00;101136.56;5070040;28;19923;-53
2021/11/25 03:01:04;;;;;;;;;;;;;;;11.83;100.00;101137.31;5053996;28;19920;-53
2021/11/25 03:03:30;;;;;;;;;;;;;;;12.03;100.00;101140.16;5054069;28;19943;-58
2021/11/25 03:05:55;;;;;;;;;;;;;;;11.91;100.00;101141.72;5054213;28;20296;-54
2021/11/25 03:08:21;;;;;;;;;;;;;;;11.97;100.00;101143.59;5086281;28;20302;-55
2021/11/25 03:10:49;;;;;;;;;;;;;;;12.14;100.00;101141.44;5052480;28;19924;-54
2021/11/25 03:13:16;;;;;;;;;;;;;;;12.14;100.00;101136.06;5053704;28;19978;-55
2021/11/25 03:15:41;;;;;;;;;;;;;;;12.05;100.00;101127.38;5052501;28;19917;-52
2021/11/25 03:18:07;;;;;;;;;;;;;;;11.99;100.00;101121.94;5053847;28;19913;-53
2021/11/25 03:20:34;;;;;;;;;;;;;;;11.59;100.00;101120.69;5086212;28;19920;-55
2021/11/25 03:23:00;;;;;;;;;;;;;;;11.65;100.00;101113.72;5053820;28;19958;-55
2021/11/25 03:25:26;;;;;;;;;;;;;;;11.89;100.00;101103.56;5054076;28;19928;-55
2021/11/25 03:27:52;;;;;;;;;;;;;;;12.45;100.00;101107.13;5053560;28;19916;-56
2021/11/25 03:30:17;;;;;;;;;;;;;;;12.19;100.00;101106.81;5053568;28;20360;-55
2021/11/25 03:32:43;;;;;;;;;;;;;;;12.34;100.00;101100.47;5052632;28;20426;-54
2021/11/25 03:35:08;;;;;;;;;;;;;;;12.33;100.00;101099.63;5053725;28;19928;-55
2021/11/25 03:37:34;;;;;;;;;;;;;;;12.54;100.00;101107.78;5053485;28;19916;-56
2021/11/25 03:40:00;;;;;;;;;;;;;;;12.60;100.00;101104.28;5053387;28;20015;-54
2021/11/25 03:42:25;;;;;;;;;;;;;;;12.63;100.00;101098.50;5054225;28;20391;-54
2021/11/25 03:44:52;;;;;;;;;;;;;;;12.17;100.00;101100.81;5085710;28;19921;-55
2021/11/25 03:47:17;;;;;;;;;;;;;;;12.56;100.00;101094.97;5054237;28;19920;-51
2021/11/25 03:49:42;;;;;;;;;;;;;;;12.55;100.00;101096.81;5055419;28;20350;-49
2021/11/25 03:52:08;;;;;;;;;;;;;;;12.48;100.00;101094.16;5052606;28;19917;-51
2021/11/25 03:54:33;;;;;;;;;;;;;;;12.51;100.00;101095.59;5053459;28;19921;-53
2021/11/25 03:56:59;;;;;;;;;;;;;;;12.45;100.00;101105.25;5052983;28;19943;-52
2021/11/25 03:59:24;;;;;;;;;;;;;;;11.89;100.00;101106.25;5053846;28;20061;-54
2021/11/25 04:01:49;;;;;;;;;;;;;;;12.40;100.00;101106.91;5052509;28;19921;-52
2021/11/25 04:04:15;;;;;;;;;;;;;;;12.69;100.00;101104.91;5086265;28;20014;-53
2021/11/25 04:06:40;;;;;;;;;;;;;;;12.25;100.00;101099.00;5053216;28;19923;-52
2021/11/25 04:09:06;;;;;;;;;;;;;;;12.07;100.00;101097.69;5052570;28;19967;-51
2021/11/25 04:11:31;;;;;;;;;;;;;;;12.14;100.00;101098.53;5085351;28;19955;-52
2021/11/25 04:14:00;;;;;;;;;;;;;;;12.02;100.00;101089.44;5051819;28;19959;-55
2021/11/25 04:16:25;;;;;;;;;;;;;;;11.86;100.00;101090.53;5052263;28;19928;-52
2021/11/25 04:18:51;;;;;;;;;;;;;;;12.10;100.00;101091.94;5053711;28;19921;-55
2021/11/25 04:21:16;;;;;;;;;;;;;;;12.09;100.00;101095.63;5052194;28;19921;-58
2021/11/25 04:23:41;;;;;;;;;;;;;;;12.30;100.00;101085.81;5086111;28;20349;-51
2021/11/25 04:26:07;;;;;;;;;;;;;;;11.91;100.00;101083.56;5052749;28;19917;-51
2021/11/25 04:28:32;;;;;;;;;;;;;;;11.78;100.00;101083.50;5085466;28;19970;-49
2021/11/25 04:36:26;;;;;;;;;;;;;;;11.69;100.00;101069.44;5053358;28;19943;-54
2021/11/25 04:38:51;;;;;;;;;;;;;;;11.59;100.00;101068.94;5052990;28;19912;-56
2021/11/25 04:41:17;;;;;;;;;;;;;;;11.44;100.00;101066.38;5053412;28;19921;-52
2021/11/25 04:43:42;;;;;;;;;;;;;;;11.84;100.00;101061.25;5084957;28;20385;-54
2021/11/25 04:46:08;;;;;;;;;;;;;;;11.96;100.00;101064.22;5085407;28;19928;-55
2021/11/25 04:48:34;;;;;;;;;;;;;;;12.22;100.00;101067.22;5084528;28;19917;-54
2021/11/25 04:51:00;;;;;;;;;;;;;;;12.42;100.00;101068.09;5052592;28;19917;-54
2021/11/25 04:53:27;;;;;;;;;;;;;;;12.35;100.00;101072.63;5053062;28;19923;-50
2021/11/25 04:55:52;;;;;;;;;;;;;;;12.34;100.00;101062.94;5052322;28;20272;-51
2021/11/25 04:58:17;;;;;;;;;;;;;;;12.28;100.00;101061.88;5052392;28;20019;-50
2021/11/25 05:00:43;;;;;;;;;;;;;;;12.42;100.00;101061.94;5053093;28;20357;-51
2021/11/25 05:03:09;;;;;;;;;;;;;;;12.45;100.00;101056.97;5052570;28;19912;-52
2021/11/25 05:05:34;;;;;;;;;;;;;;;12.32;100.00;101056.94;5052446;28;20023;-54
2021/11/25 05:07:59;;;;;;;;;;;;;;;12.24;100.00;101057.16;5052790;28;19963;-53
2021/11/25 05:10:25;;;;;;;;;;;;;;;11.79;100.00;101063.72;5084938;28;19920;-55
2021/11/25 05:12:50;;;;;;;;;;;;;;;12.24;100.00;101060.63;5052579;28;19921;-53
2021/11/25 05:15:16;;;;;;;;;;;;;;;12.51;100.00;101073.31;5052637;28;19944;-53
2021/11/25 05:17:41;;;;;;;;;;;;;;;12.45;100.00;101065.03;5055462;28;19916;-55
2021/11/25 05:20:09;;;;;;;;;;;;;;;12.17;100.00;101065.97;5056437;28;19936;-55
2021/11/25 05:22:35;;;;;;;;;;;;;;;12.34;100.00;101070.97;5056830;28;19927;-53
2021/11/25 05:25:00;;;;;;;;;;;;;;;11.72;100.00;101077.06;5054700;28;20304;-50
2021/11/25 05:27:26;;;;;;;;;;;;;;;11.85;100.00;101073.63;5055749;28;19920;-55
2021/11/25 05:29:52;;;;;;;;;;;;;;;11.81;100.00;101071.53;5088268;28;19921;-51
2021/11/25 05:32:17;;;;;;;;;;;;;;;11.65;100.00;101070.00;5055574;28;19923;-55
2021/11/25 05:34:45;;;;;;;;;;;;;;;11.58;100.00;101061.94;5071156;28;19962;-53
2021/11/25 05:37:11;;;;;;;;;;;;;;;11.51;100.00;101066.44;5055868;28;19925;-55
2021/11/25 05:39:36;;;;;;;;;;;;;;;11.48;100.00;101052.41;5054870;28;20008;-55
2021/11/25 05:42:02;;;;;;;;;;;;;;;11.41;100.00;101053.38;5054694;28;19959;-55
2021/11/25 05:44:27;;;;;;;;;;;;;;;11.15;100.00;101041.47;5087901;28;20252;-53
2021/11/25 05:46:53;;;;;;;;;;;;;;;11.10;100.00;101041.22;5055903;28;20373;-55
2021/11/25 05:49:18;;;;;;;;;;;;;;;11.21;100.00;101040.69;5055799;28;19966;-52
2021/11/25 05:51:44;;;;;;;;;;;;;;;10.92;100.00;101045.19;5055688;28;19970;-54
2021/11/25 05:54:10;;;;;;;;;;;;;;;11.52;100.00;101042.09;5087832;28;19925;-51
2021/11/25 05:56:35;;;;;;;;;;;;;;;11.84;100.00;101034.47;5055417;28;19924;-55
2021/11/25 05:59:01;;;;;;;;;;;;;;;11.53;100.00;101037.59;5055569;28;19931;-55
2021/11/25 06:01:26;;;;;;;;;;;;;;;11.48;100.00;101051.56;5056409;28;20285;-54
2021/11/25 06:03:53;;;;;;;;;;;;;;;11.62;100.00;101052.47;5054462;28;19996;-54
2021/11/25 06:06:18;;;;;;;;;;;;;;;11.80;100.00;101038.56;5055746;28;19917;-51
2021/11/25 06:08:44;;;;;;;;;;;;;;;11.78;100.00;101040.63;5055557;28;19917;-52
2021/11/25 06:11:09;;;;;;;;;;;;;;;11.76;100.00;101037.28;5054893;28;20297;-52
2021/11/25 06:13:34;;;;;;;;;;;;;;;11.46;100.00;101027.69;5054749;28;19921;-50
2021/11/25 06:16:00;;;;;;;;;;;;;;;11.21;100.00;101023.81;5087023;28;20331;-51
2021/11/25 06:18:26;;;;;;;;;;;;;;;11.27;100.00;101021.16;5054994;28;19971;-55
2021/11/25 06:20:51;;;;;;;;;;;;;;;11.12;100.00;101020.44;5054986;28;19971;-52
2021/11/25 06:23:17;;;;;;;;;;;;;;;11.25;100.00;101009.00;5087743;28;19920;-54
2021/11/25 06:25:43;;;;;;;;;;;;;;;11.20;100.00;101001.53;5054584;28;19916;-55
2021/11/25 06:28:09;;;;;;;;;;;;;;;11.37;100.00;101001.25;5086261;28;19920;-54
2021/11/25 06:30:34;;;;;;;;;;;;;;;11.39;100.00;101007.22;5055073;28;19928;-51
2021/11/25 06:33:00;;;;;;;;;;;;;;;11.23;100.00;101005.69;5054694;28;19924;-54
2021/11/25 06:35:25;;;;;;;;;;;;;;;11.12;100.00;101023.13;5054330;28;19965;-52
2021/11/25 06:37:52;;;;;;;;;;;;;;;10.95;100.00;101028.75;5053264;28;20281;-51
2021/11/25 06:40:21;;;;;;;;;;;;;;;11.23;100.00;101021.75;5054456;28;19917;-53
2021/11/25 06:42:46;;;;;;;;;;;;;;;10.95;100.00;101019.88;5054123;28;19916;-54
2021/11/25 06:45:12;;;;;;;;;;;;;;;11.26;100.00;101016.00;5054105;28;20412;-50
2021/11/25 06:47:38;;;;;;;;;;;;;;;10.90;100.00;101015.13;5054702;28;19970;-54
2021/11/25 06:50:05;;;;;;;;;;;;;;;11.15;100.00;101022.72;5086424;28;20332;-50
2021/11/25 06:52:30;;;;;;;;;;;;;;;11.33;100.00;101020.38;5054157;28;19943;-52
2021/11/25 06:54:56;;;;;;;;;;;;;;;11.31;100.00;101018.91;5053927;28;19924;-52
2021/11/25 06:57:21;;;;;;;;;;;;;;;11.26;100.00;101016.00;5053796;28;19944;-52
2021/11/25 06:59:46;;;;;;;;;;;;;;;11.59;100.00;101010.00;5086260;28;19988;-53
2021/11/25 07:02:12;;;;;;;;;;;;;;;11.44;100.00;101008.31;5053665;28;20289;-52
2021/11/25 07:04:37;;;;;;;;;;;;;;;10.93;100.00;101004.03;5086517;28;19960;-52
2021/11/25 07:07:03;;;;;;;;;;;;;;;10.98;100.00;101001.59;5086325;28;20428;-57
2021/11/25 07:09:28;;;;;;;;;;;;;;;10.94;100.00;100997.66;5068832;28;20011;-55
2021/11/25 07:11:54;;;;;;;;;;;;;;;11.16;100.00;101000.28;5053562;28;19943;-52
2021/11/25 07:14:19;;;;;;;;;;;;;;;10.74;100.00;101003.66;5054835;28;19958;-53
2021/11/25 07:16:45;;;;;;;;;;;;;;;10.68;100.00;101003.59;5053779;28;19924;-54
2021/11/25 07:19:10;;;;;;;;;;;;;;;11.29;100.00;101011.06;5086171;28;20019;-56
2021/11/25 07:21:35;;;;;;;;;;;;;;;11.33;100.00;101008.84;5053789;28;19917;-55
2021/11/25 07:24:01;;;;;;;;;;;;;;;11.39;100.00;101010.72;5053889;28;19951;-55
2021/11/25 07:26:26;;;;;;;;;;;;;;;11.32;100.00;101010.69;5053357;28;19927;-55
2021/11/25 07:28:54;;;;;;;;;;;;;;;11.35;100.00;101009.47;5052026;28;19982;-54
2021/11/25 07:31:20;;;;;;;;;;;;;;;11.29;100.00;101013.75;5052762;28;20345;-52
2021/11/25 07:33:45;;;;;;;;;;;;;;;11.59;100.00;101016.22;5052283;28;19920;-53
2021/11/25 07:36:13;;;;;;;;;;;;;;;11.54;100.00;101018.66;5053641;28;19920;-49
2021/11/25 07:38:38;;;;;;;;;;;;;;;11.33;100.00;101019.53;5069324;28;19920;-54
2021/11/25 07:41:04;;;;;;;;;;;;;;;11.17;100.00;101028.72;5052926;28;20387;-53
2021/11/25 07:43:30;;;;;;;;;;;;;;;11.00;100.00;101023.63;5053383;28;20050;-51
2021/11/25 07:45:57;;;;;;;;;;;;;;;11.10;100.00;101014.47;5052492;28;20431;-54
2021/11/25 07:48:22;;;;;;;;;;;;;;;10.97;100.00;101010.66;5052879;28;20301;-51
2021/11/25 07:50:47;;;;;;;;;;;;;;;10.97;100.00;101007.97;5053470;28;19928;-55
2021/11/25 07:53:13;;;;;;;;;;;;;;;10.69;100.00;100997.22;5053570;28;19917;-55
2021/11/25 07:55:38;;;;;;;;;;;;;;;10.99;100.00;101000.56;5085700;28;19921;-50
2021/11/25 07:58:03;;;;;;;;;;;;;;;10.86;100.00;100997.81;5053119;28;19982;-49
2021/11/25 08:00:29;;;;;;;;;;;;;;;10.90;100.00;101007.09;5052795;28;19921;-54
2021/11/25 08:02:55;;;;;;;;;;;;;;;10.92;100.00;101005.06;5053045;28;20305;-50
2021/11/25 08:05:24;;;;;;;;;;;;;;;10.97;100.00;101007.97;5053133;28;19916;-54
2021/11/25 08:07:49;;;;;;;;;;;;;;;11.39;100.00;101010.72;5051955;28;19923;-49
2021/11/25 08:10:15;;;;;;;;;;;;;;;11.41;100.00;101010.53;5053013;28;20284;-53
2021/11/25 08:12:41;;;;;;;;;;;;;;;11.57;100.00;101007.56;5052736;28;19921;-54
2021/11/25 08:15:07;;;;;;;;;;;;;;;11.29;100.00;101005.72;5085877;28;20031;-51
2021/11/25 08:17:33;;;;;;;;;;;;;;;10.97;100.00;101013.31;5052774;28;20052;-50
2021/11/25 08:19:58;;;;;;;;;;;;;;;10.88;100.00;101014.50;5052854;28;19916;-53
2021/11/25 08:22:23;;;;;;;;;;;;;;;10.87;100.00;101010.97;5053029;28;19923;-55
2021/11/25 08:24:49;;;;;;;;;;;;;;;11.15;100.00;101010.16;5052562;28;19927;-55
2021/11/25 08:27:14;;;;;;;;;;;;;;;10.96;100.00;101006.31;5052632;28;19924;-51
2021/11/25 08:29:41;;;;;;;;;;;;;;;10.97;100.00;101013.31;5052701;28;19967;-55
2021/11/25 08:32:07;;;;;;;;;;;;;;;11.29;100.00;101008.38;5052496;28;19913;-55
2021/11/25 08:34:33;;;;;;;;;;;;;;;11.31;100.00;101011.72;5085760;28;19982;-53
2021/11/25 08:36:58;;;;;;;;;;;;;;;10.96;100.00;101009.00;5052620;28;20365;-55
2021/11/25 08:39:24;;;;;;;;;;;;;;;10.99;100.00;101016.63;5051286;28;20261;-52
2021/11/25 08:41:49;;;;;;;;;;;;;;;11.40;100.00;101007.00;5085355;28;19966;-52
2021/11/25 08:44:14;;;;;;;;;;;;;;;11.31;100.00;101006.38;5053139;28;19925;-55
2021/11/25 08:46:40;;;;;;;;;;;;;;;11.55;100.00;101008.75;5052443;28;19916;-52
2021/11/25 08:49:05;;;;;;;;;;;;;;;11.47;100.00;101007.06;5084616;28;20318;-51
2021/11/25 08:51:31;;;;;;;;;;;;;;;11.70;100.00;101006.78;5052691;28;19973;-54
2021/11/25 08:54:01;;;;;;;;;;;;;;;11.50;100.00;101006.66;5071837;28;19924;-51
2021/11/25 08:56:29;;;;;;;;;;;;;;;11.52;100.00;101012.66;5056024;28;20270;-54
2021/11/25 08:58:56;;;;;;;;;;;;;;;11.68;100.00;101000.81;5056648;28;19927;-49
2021/11/25 09:01:22;;;;;;;;;;;;;;;11.64;100.00;101002.19;5056379;28;19916;-51
2021/11/25 09:03:48;;;;;;;;;;;;;;;11.76;100.00;101002.47;5055212;28;19920;-50
2021/11/25 09:06:14;;;;;;;;;;;;;;;11.62;100.00;101001.56;5056849;28;19916;-51
2021/11/25 09:08:40;;;;;;;;;;;;;;;11.59;100.00;101002.81;5088491;28;19913;-52
2021/11/25 09:11:06;;;;;;;;;;;;;;;12.05;100.00;101004.06;5056064;28;19946;-55
2021/11/25 09:13:31;;;;;;;;;;;;;;;12.12;100.00;101008.63;5055086;28;19917;-55
2021/11/25 09:15:58;;;;;;;;;;;;;;;12.05;100.00;101003.25;5088962;28;20058;-51
2021/11/25 09:18:23;;;;;;;;;;;;;;;12.11;100.00;101009.63;5056355;28;19979;-52
2021/11/25 09:20:48;;;;;;;;;;;;;;;12.25;100.00;101007.84;5056283;28;19987;-56
2021/11/25 09:23:15;;;;;;;;;;;;;;;11.79;100.00;101007.44;5056572;28;20378;-50
2021/11/25 09:25:44;;;;;;;;;;;;;;;12.12;100.00;101006.75;5056160;28;20376;-50
2021/11/25 09:28:11;;;;;;;;;;;;;;;11.42;100.00;101009.50;5055940;28;20463;-55
2021/11/25 09:30:37;;;;;;;;;;;;;;;11.67;100.00;101001.84;5055661;28;19948;-52
2021/11/25 09:33:02;;;;;;;;;;;;;;;11.94;100.00;100999.25;5055539;28;19967;-53
2021/11/25 09:35:28;;;;;;;;;;;;;;;11.86;100.00;101010.97;5056105;28;20383;-52
2021/11/25 09:37:53;;;;;;;;;;;;;;;11.48;100.00;101004.19;5087878;28;20387;-53
2021/11/25 09:40:24;;;;;;;;;;;;;;;11.61;100.00;101013.31;5071042;28;19932;-56
2021/11/25 09:42:51;;;;;;;;;;;;;;;11.85;100.00;101019.19;5055577;28;19916;-52
2021/11/25 09:45:17;;;;;;;;;;;;;;;12.18;100.00;101023.91;5088606;28;19968;-54
2021/11/25 09:47:43;;;;;;;;;;;;;;;11.57;100.00;101033.50;5054196;28;19927;-58
2021/11/25 09:50:08;;;;;;;;;;;;;;;12.15;100.00;101033.16;5055973;28;20003;-55
2021/11/25 09:52:33;;;;;;;;;;;;;;;12.26;100.00;101033.63;5087587;28;19927;-52
2021/11/25 09:54:59;;;;;;;;;;;;;;;11.66;100.00;101040.38;5055459;28;19920;-54
2021/11/25 09:57:24;;;;;;;;;;;;;;;11.16;100.00;101048.47;5070780;28;20393;-50
2021/11/25 09:59:50;;;;;;;;;;;;;;;11.60;100.00;101046.50;5054819;28;19970;-50
2021/11/25 10:02:16;;;;;;;;;;;;;;;12.00;100.00;101048.56;5054554;28;20368;-54
2021/11/25 10:04:41;;;;;;;;;;;;;;;11.91;100.00;101040.69;5054574;28;20011;-55
2021/11/25 10:07:06;;;;;;;;;;;;;;;11.68;100.00;101040.16;5087519;28;20421;-53
2021/11/25 10:09:33;;;;;;;;;;;;;;;11.78;100.00;101032.59;5055007;28;19916;-54
2021/11/25 10:12:00;;;;;;;;;;;;;;;11.54;100.00;101031.22;5053579;28;20004;-51
2021/11/25 10:14:34;;;;;;;;;;;;;;;11.52;100.00;101028.72;5086966;28;20381;-54
2021/11/25 10:17:00;;;;;;;;;;;;;;;11.39;100.00;101028.66;5054934;28;19959;-52
2021/11/25 10:19:27;;;;;;;;;;;;;;;11.18;100.00;101030.38;5053678;28;19925;-51
2021/11/25 10:21:56;;;;;;;;;;;;;;;11.94;100.00;101030.59;5054801;28;20066;-54
2021/11/25 10:24:35;;;;;;;;;;;;;;;12.05;100.00;101027.38;5054890;28;19917;-56
2021/11/25 10:27:15;;;;;;;;;;;;;;;12.33;100.00;101023.75;5087143;28;19916;-52
2021/11/25 10:29:40;;;;;;;;;;;;;;;12.62;100.00;101033.28;5054799;28;20057;-54
2021/11/25 10:32:06;;;;;;;;;;;;;;;12.60;100.00;101032.69;5053377;28;20003;-54
2021/11/25 10:34:44;;;;;;;;;;;;;;;12.13;100.00;101027.19;5054667;28;19978;-55
2021/11/25 10:37:25;;;;;;;;;;;;;;;12.53;100.00;101022.97;5053660;28;19951;-52
2021/11/25 10:42:36;;;;;;;;;;;;;;;13.19;100.00;101022.13;5054797;28;20361;-55
2021/11/25 10:45:09;;;;;;;;;;;;;;;13.42;100.00;101001.25;5053135;28;19917;-50
2021/11/25 10:47:34;;;;;;;;;;;;;;;13.71;100.00;101002.63;5055133;28;19970;-50
2021/11/25 10:50:01;;;;;;;;;;;;;;;13.70;100.00;100992.09;5055464;28;19917;-56
2021/11/25 10:52:28;;;;;;;;;;;;;;;13.36;100.00;101010.13;5052569;28;19916;-51
2021/11/25 10:54:58;;;;;;;;;;;;;;;13.20;100.00;100999.63;5054067;28;19924;-52
2021/11/25 10:57:35;;;;;;;;;;;;;;;13.13;100.00;100997.97;5052828;28;19984;-52
2021/11/25 11:00:05;;;;;;;;;;;;;;;13.41;100.00;100994.22;5054560;28;20336;-53
2021/11/25 11:02:31;;;;;;;;;;;;;;;13.67;100.00;101003.28;5054000;28;19916;-51
2021/11/25 11:04:58;;;;;;;;;;;;;;;13.51;100.00;101004.56;5054040;28;19919;-54
2021/11/25 11:07:25;;;;;;;;;;;;;;;13.58;100.00;100998.13;5054137;28;20031;-51
2021/11/25 11:09:51;;;;;;;;;;;;;;;13.69;100.00;101011.94;5054094;28;19924;-54
2021/11/25 11:12:18;;;;;;;;;;;;;;;13.71;100.00;101013.38;5054068;28;19916;-53
2021/11/25 11:14:55;;;;;;;;;;;;;;;13.53;100.00;101010.56;5053247;28;20378;-51
2021/11/25 11:17:27;;;;;;;;;;;;;;;13.98;100.00;101004.38;5053707;28;20007;-52
2021/11/25 11:20:08;;;;;;;;;;;;;;;14.26;100.00;101000.50;5054306;28;19920;-50
2021/11/25 11:22:34;;;;;;;;;;;;;;;13.99;100.00;101011.41;5053464;28;19916;-52
2021/11/25 11:25:01;;;;;;;;;;;;;;;14.13;100.00;101013.00;5053447;28;20368;-52
2021/11/25 11:27:26;;;;;;;;;;;;;;;14.56;100.00;101016.88;5053481;28;19960;-56
2021/11/25 11:29:52;;;;;;;;;;;;;;;14.54;100.00;101007.38;5052454;28;20367;-53
2021/11/25 11:32:17;;;;;;;;;;;;;;;14.54;100.00;101004.69;5053587;28;20012;-52
2021/11/25 11:34:43;;;;;;;;;;;;;;;14.58;100.00;101005.91;5052522;28;19928;-52
2021/11/25 11:37:12;;;;;;;;;;;;;;;14.87;100.00;101015.22;5054709;28;20023;-52
2021/11/25 11:39:38;;;;;;;;;;;;;;;14.71;100.00;101015.78;5055321;28;19958;-52
2021/11/25 11:42:07;;;;;;;;;;;;;;;14.02;100.00;101014.50;5054482;28;19916;-54
2021/11/25 11:44:32;;;;;;;;;;;;;;;14.61;100.00;101016.22;5053977;28;20284;-51
2021/11/25 11:47:00;;;;;;;;;;;;;;;14.90;100.00;101012.09;5053583;28;19958;-49
2021/11/25 11:49:26;;;;;;;;;;;;;;;14.89;100.00;101005.06;5053249;28;20019;-52
2021/11/25 11:52:01;;;;;;;;;;;;;;;14.80;100.00;100998.31;5053233;28;20007;-52
2021/11/25 11:54:26;;;;;;;;;;;;;;;14.56;100.00;100997.22;5053582;28;19916;-51
2021/11/25 11:56:52;;;;;;;;;;;;;;;14.73;100.00;100998.34;5054764;28;19982;-54
2021/11/25 11:59:18;;;;;;;;;;;;;;;14.74;100.00;101000.00;5086623;28;19919;-53
2021/11/25 12:01:50;;;;;;;;;;;;;;;15.14;100.00;101006.94;5053776;28;19920;-52
2021/11/25 12:04:16;;;;;;;;;;;;;;;15.18;100.00;101001.91;5053385;28;19920;-54
2021/11/25 12:06:48;;;;;;;;;;;;;;;15.39;100.00;100995.28;5052370;28;19917;-55
2021/11/25 12:09:23;;;;;;;;;;;;;;;15.51;100.00;101006.13;5053027;28;19924;-52
2021/11/25 12:11:52;;;;;;;;;;;;;;;15.51;100.00;100997.22;5052611;28;19916;-53
2021/11/25 12:14:28;;;;;;;;;;;;;;;15.57;100.00;100993.59;5052876;28;20003;-54
2021/11/25 12:16:58;;;;;;;;;;;;;;;15.39;100.00;100999.81;5085757;28;20366;-51
2021/11/25 12:19:43;;;;;;;;;;;;;;;15.47;100.00;100992.28;5051568;28;19916;-51
2021/11/25 12:22:11;;;;;;;;;;;;;;;15.68;100.00;100978.56;5053045;28;19963;-51
2021/11/25 12:24:44;;;;;;;;;;;;;;;15.10;100.00;100983.34;5052689;28;19939;-51
2021/11/25 12:27:13;;;;;;;;;;;;;;;15.42;100.00;100980.50;5055380;28;19916;-52
2021/11/25 12:29:43;;;;;;;;;;;;;;;15.71;100.00;100975.44;5057265;28;19913;-54
2021/11/25 12:32:28;;;;;;;;;;;;;;;15.57;100.00;100977.44;5057148;28;19924;-54